sensor_id;sensor_type;location;lat;lon;timestamp;temperature;humidity
326;DHT22;150;52.352;14.058;2024-02-21T00:01:14;7.80;40.30
326;DHT22;150;52.352;14.058;2024-02-21T00:03:41;7.80;40.40
326;DHT22;150;52.352;14.058;2024-02-21T00:06:08;7.80;40.30
326;DHT22;150;52.352;14.058;2024-02-21T00:08:34;7.80;40.30
326;DHT22;150;52.352;14.058;2024-02-21T00:11:01;7.80;40.00
326;DHT22;150;52.352;14.058;2024-02-21T00:13:29;7.70;40.20
326;DHT22;150;52.352;14.058;2024-02-21T00:15:55;7.70;40.80
326;DHT22;150;52.352;14.058;2024-02-21T00:18:22;7.70;41.00
326;DHT22;150;52.352;14.058;2024-02-21T00:20:48;7.70;40.80
326;DHT22;150;52.352;14.058;2024-02-21T00:23:15;7.70;40.70
326;DHT22;150;52.352;14.058;2024-02-21T00:25:42;7.70;40.40
326;DHT22;150;52.352;14.058;2024-02-21T00:28:08;7.60;40.60
326;DHT22;150;52.352;14.058;2024-02-21T00:30:36;7.60;40.80
326;DHT22;150;52.352;14.058;2024-02-21T00:33:03;7.60;41.60
326;DHT22;150;52.352;14.058;2024-02-21T00:35:30;7.60;41.10
326;DHT22;150;52.352;14.058;2024-02-21T00:37:57;7.70;41.00
326;DHT22;150;52.352;14.058;2024-02-21T00:40:25;7.60;40.80
326;DHT22;150;52.352;14.058;2024-02-21T00:42:51;7.50;41.20
326;DHT22;150;52.352;14.058;2024-02-21T00:45:18;7.50;41.00
326;DHT22;150;52.352;14.058;2024-02-21T00:47:46;7.60;40.90
326;DHT22;150;52.352;14.058;2024-02-21T00:50:12;7.60;41.10
326;DHT22;150;52.352;14.058;2024-02-21T00:52:39;7.60;40.70
326;DHT22;150;52.352;14.058;2024-02-21T00:55:06;7.50;40.90
326;DHT22;150;52.352;14.058;2024-02-21T00:57:34;7.60;41.00
326;DHT22;150;52.352;14.058;2024-02-21T01:00:01;7.60;40.70
326;DHT22;150;52.352;14.058;2024-02-21T01:02:27;7.60;40.70
326;DHT22;150;52.352;14.058;2024-02-21T01:04:58;7.50;41.00
326;DHT22;150;52.352;14.058;2024-02-21T01:07:24;7.50;41.10
326;DHT22;150;52.352;14.058;2024-02-21T01:09:51;7.50;40.80
326;DHT22;150;52.352;14.058;2024-02-21T01:12:18;7.60;41.20
326;DHT22;150;52.352;14.058;2024-02-21T01:14:44;7.70;41.00
326;DHT22;150;52.352;14.058;2024-02-21T01:17:12;7.70;40.40
326;DHT22;150;52.352;14.058;2024-02-21T01:19:38;7.70;40.20
326;DHT22;150;52.352;14.058;2024-02-21T01:22:06;7.70;40.20
326;DHT22;150;52.352;14.058;2024-02-21T01:24:33;7.60;40.40
326;DHT22;150;52.352;14.058;2024-02-21T01:26:59;7.60;40.80
326;DHT22;150;52.352;14.058;2024-02-21T01:29:26;7.60;40.30
326;DHT22;150;52.352;14.058;2024-02-21T01:31:53;7.60;40.70
326;DHT22;150;52.352;14.058;2024-02-21T01:34:19;7.60;41.10
326;DHT22;150;52.352;14.058;2024-02-21T01:36:46;7.60;40.40
326;DHT22;150;52.352;14.058;2024-02-21T01:39:14;7.70;40.80
326;DHT22;150;52.352;14.058;2024-02-21T01:41:40;7.60;40.60
326;DHT22;150;52.352;14.058;2024-02-21T01:44:07;7.60;41.00
326;DHT22;150;52.352;14.058;2024-02-21T01:46:33;7.60;41.30
326;DHT22;150;52.352;14.058;2024-02-21T01:49:00;7.60;41.50
326;DHT22;150;52.352;14.058;2024-02-21T01:51:27;7.60;41.90
326;DHT22;150;52.352;14.058;2024-02-21T01:53:55;7.60;41.90
326;DHT22;150;52.352;14.058;2024-02-21T01:56:24;7.60;41.70
326;DHT22;150;52.352;14.058;2024-02-21T01:58:51;7.60;41.90
326;DHT22;150;52.352;14.058;2024-02-21T02:01:18;7.60;42.00
326;DHT22;150;52.352;14.058;2024-02-21T02:03:45;7.60;42.00
326;DHT22;150;52.352;14.058;2024-02-21T02:06:12;7.60;42.20
326;DHT22;150;52.352;14.058;2024-02-21T02:08:39;7.60;42.40
326;DHT22;150;52.352;14.058;2024-02-21T02:11:05;7.60;42.10
326;DHT22;150;52.352;14.058;2024-02-21T02:13:34;7.60;42.10
326;DHT22;150;52.352;14.058;2024-02-21T02:16:01;7.60;42.30
326;DHT22;150;52.352;14.058;2024-02-21T02:18:27;7.60;42.80
326;DHT22;150;52.352;14.058;2024-02-21T02:20:54;7.60;42.20
326;DHT22;150;52.352;14.058;2024-02-21T02:23:24;7.50;42.20
326;DHT22;150;52.352;14.058;2024-02-21T02:25:51;7.60;42.20
326;DHT22;150;52.352;14.058;2024-02-21T02:28:18;7.50;41.90
326;DHT22;150;52.352;14.058;2024-02-21T02:30:45;7.40;42.30
326;DHT22;150;52.352;14.058;2024-02-21T02:33:12;7.50;43.00
326;DHT22;150;52.352;14.058;2024-02-21T02:35:39;7.50;42.50
326;DHT22;150;52.352;14.058;2024-02-21T02:38:05;7.50;42.60
326;DHT22;150;52.352;14.058;2024-02-21T02:40:34;7.50;42.60
326;DHT22;150;52.352;14.058;2024-02-21T02:43:01;7.50;42.30
326;DHT22;150;52.352;14.058;2024-02-21T02:45:28;7.50;42.30
326;DHT22;150;52.352;14.058;2024-02-21T02:47:55;7.50;41.80
326;DHT22;150;52.352;14.058;2024-02-21T02:50:22;7.60;41.80
326;DHT22;150;52.352;14.058;2024-02-21T02:52:49;7.60;41.70
326;DHT22;150;52.352;14.058;2024-02-21T02:55:16;7.50;41.30
326;DHT22;150;52.352;14.058;2024-02-21T02:57:44;7.60;41.50
326;DHT22;150;52.352;14.058;2024-02-21T03:00:12;7.60;41.40
326;DHT22;150;52.352;14.058;2024-02-21T03:02:39;7.50;41.40
326;DHT22;150;52.352;14.058;2024-02-21T03:05:12;7.50;41.50
326;DHT22;150;52.352;14.058;2024-02-21T03:07:39;7.50;41.70
326;DHT22;150;52.352;14.058;2024-02-21T03:10:07;7.50;41.70
326;DHT22;150;52.352;14.058;2024-02-21T03:12:34;7.50;42.20
326;DHT22;150;52.352;14.058;2024-02-21T03:15:02;7.50;42.30
326;DHT22;150;52.352;14.058;2024-02-21T03:17:29;7.50;42.70
326;DHT22;150;52.352;14.058;2024-02-21T03:19:55;7.60;42.30
326;DHT22;150;52.352;14.058;2024-02-21T03:22:22;7.50;42.40
326;DHT22;150;52.352;14.058;2024-02-21T03:24:49;7.60;42.90
326;DHT22;150;52.352;14.058;2024-02-21T03:27:16;7.70;42.70
326;DHT22;150;52.352;14.058;2024-02-21T03:29:42;7.60;42.90
326;DHT22;150;52.352;14.058;2024-02-21T03:32:10;7.60;43.30
326;DHT22;150;52.352;14.058;2024-02-21T03:34:37;7.60;43.70
326;DHT22;150;52.352;14.058;2024-02-21T03:37:03;7.70;43.70
326;DHT22;150;52.352;14.058;2024-02-21T03:39:31;7.60;43.80
326;DHT22;150;52.352;14.058;2024-02-21T03:41:58;7.70;43.90
326;DHT22;150;52.352;14.058;2024-02-21T03:44:26;7.60;43.70
326;DHT22;150;52.352;14.058;2024-02-21T03:46:52;7.70;43.80
326;DHT22;150;52.352;14.058;2024-02-21T03:49:20;7.60;44.30
326;DHT22;150;52.352;14.058;2024-02-21T03:51:47;7.50;44.70
326;DHT22;150;52.352;14.058;2024-02-21T03:54:14;7.40;45.50
326;DHT22;150;52.352;14.058;2024-02-21T03:56:40;7.40;46.00
326;DHT22;150;52.352;14.058;2024-02-21T03:59:07;7.50;46.10
326;DHT22;150;52.352;14.058;2024-02-21T04:01:34;7.40;46.20
326;DHT22;150;52.352;14.058;2024-02-21T04:04:01;7.50;46.60
326;DHT22;150;52.352;14.058;2024-02-21T04:06:28;7.50;46.70
326;DHT22;150;52.352;14.058;2024-02-21T04:08:56;7.40;46.90
326;DHT22;150;52.352;14.058;2024-02-21T04:11:23;7.30;47.30
326;DHT22;150;52.352;14.058;2024-02-21T04:13:50;7.40;47.70
326;DHT22;150;52.352;14.058;2024-02-21T04:16:17;7.40;47.80
326;DHT22;150;52.352;14.058;2024-02-21T04:18:43;7.40;47.70
326;DHT22;150;52.352;14.058;2024-02-21T04:21:11;7.30;48.10
326;DHT22;150;52.352;14.058;2024-02-21T04:23:41;7.20;48.50
326;DHT22;150;52.352;14.058;2024-02-21T04:26:08;7.10;48.50
326;DHT22;150;52.352;14.058;2024-02-21T04:28:35;7.10;49.50
326;DHT22;150;52.352;14.058;2024-02-21T04:31:01;7.10;49.70
326;DHT22;150;52.352;14.058;2024-02-21T04:33:28;7.20;49.90
326;DHT22;150;52.352;14.058;2024-02-21T04:35:55;7.20;49.60
326;DHT22;150;52.352;14.058;2024-02-21T04:38:21;7.20;49.40
326;DHT22;150;52.352;14.058;2024-02-21T04:40:49;7.20;49.70
326;DHT22;150;52.352;14.058;2024-02-21T04:43:16;7.20;49.40
326;DHT22;150;52.352;14.058;2024-02-21T04:45:42;7.20;49.30
326;DHT22;150;52.352;14.058;2024-02-21T04:48:09;7.10;49.80
326;DHT22;150;52.352;14.058;2024-02-21T04:50:35;7.00;50.30
326;DHT22;150;52.352;14.058;2024-02-21T04:53:02;7.10;50.90
326;DHT22;150;52.352;14.058;2024-02-21T04:55:29;7.00;51.10
326;DHT22;150;52.352;14.058;2024-02-21T04:57:57;7.00;51.20
326;DHT22;150;52.352;14.058;2024-02-21T05:00:23;6.90;51.50
326;DHT22;150;52.352;14.058;2024-02-21T05:02:50;6.90;51.90
326;DHT22;150;52.352;14.058;2024-02-21T05:05:16;6.80;52.00
326;DHT22;150;52.352;14.058;2024-02-21T05:07:43;6.70;53.20
326;DHT22;150;52.352;14.058;2024-02-21T05:10:10;6.70;53.20
326;DHT22;150;52.352;14.058;2024-02-21T05:12:36;6.70;53.20
326;DHT22;150;52.352;14.058;2024-02-21T05:15:05;6.70;53.20
326;DHT22;150;52.352;14.058;2024-02-21T05:17:32;6.80;53.30
326;DHT22;150;52.352;14.058;2024-02-21T05:19:59;6.80;53.30
326;DHT22;150;52.352;14.058;2024-02-21T05:22:25;6.90;53.40
326;DHT22;150;52.352;14.058;2024-02-21T05:24:52;6.90;52.90
326;DHT22;150;52.352;14.058;2024-02-21T05:27:18;6.90;53.40
326;DHT22;150;52.352;14.058;2024-02-21T05:29:45;6.80;53.20
326;DHT22;150;52.352;14.058;2024-02-21T05:32:13;6.90;53.00
326;DHT22;150;52.352;14.058;2024-02-21T05:34:39;6.90;52.90
326;DHT22;150;52.352;14.058;2024-02-21T05:37:06;6.90;52.80
326;DHT22;150;52.352;14.058;2024-02-21T05:39:32;7.00;52.70
326;DHT22;150;52.352;14.058;2024-02-21T05:41:59;7.00;52.40
326;DHT22;150;52.352;14.058;2024-02-21T05:44:26;7.00;52.30
326;DHT22;150;52.352;14.058;2024-02-21T05:46:52;7.00;52.40
326;DHT22;150;52.352;14.058;2024-02-21T05:49:20;6.90;52.10
326;DHT22;150;52.352;14.058;2024-02-21T05:51:47;7.00;52.20
326;DHT22;150;52.352;14.058;2024-02-21T05:54:13;7.10;52.50
326;DHT22;150;52.352;14.058;2024-02-21T05:56:44;7.10;52.00
326;DHT22;150;52.352;14.058;2024-02-21T05:59:10;7.10;51.60
326;DHT22;150;52.352;14.058;2024-02-21T06:01:37;7.10;51.90
326;DHT22;150;52.352;14.058;2024-02-21T06:04:04;7.00;51.80
326;DHT22;150;52.352;14.058;2024-02-21T06:06:32;7.00;52.00
326;DHT22;150;52.352;14.058;2024-02-21T06:08:59;7.00;52.20
326;DHT22;150;52.352;14.058;2024-02-21T06:11:28;7.10;52.00
326;DHT22;150;52.352;14.058;2024-02-21T06:13:55;7.00;51.60
326;DHT22;150;52.352;14.058;2024-02-21T06:16:21;7.00;51.80
326;DHT22;150;52.352;14.058;2024-02-21T06:18:48;7.00;52.00
326;DHT22;150;52.352;14.058;2024-02-21T06:21:14;7.10;52.40
326;DHT22;150;52.352;14.058;2024-02-21T06:23:43;7.20;51.70
326;DHT22;150;52.352;14.058;2024-02-21T06:26:10;7.20;51.00
326;DHT22;150;52.352;14.058;2024-02-21T06:28:36;7.20;51.30
326;DHT22;150;52.352;14.058;2024-02-21T06:31:03;7.20;50.80
326;DHT22;150;52.352;14.058;2024-02-21T06:33:30;7.10;51.60
326;DHT22;150;52.352;14.058;2024-02-21T06:35:56;7.10;51.20
326;DHT22;150;52.352;14.058;2024-02-21T06:38:23;7.10;51.40
326;DHT22;150;52.352;14.058;2024-02-21T06:40:51;7.10;51.40
326;DHT22;150;52.352;14.058;2024-02-21T06:43:20;7.10;51.70
326;DHT22;150;52.352;14.058;2024-02-21T06:45:47;7.10;51.60
326;DHT22;150;52.352;14.058;2024-02-21T06:48:16;7.10;51.20
326;DHT22;150;52.352;14.058;2024-02-21T06:50:43;7.10;51.30
326;DHT22;150;52.352;14.058;2024-02-21T06:53:09;7.10;51.40
326;DHT22;150;52.352;14.058;2024-02-21T06:55:36;7.00;51.10
326;DHT22;150;52.352;14.058;2024-02-21T06:58:04;7.00;51.60
326;DHT22;150;52.352;14.058;2024-02-21T07:00:31;7.10;51.70
326;DHT22;150;52.352;14.058;2024-02-21T07:02:57;7.10;51.50
326;DHT22;150;52.352;14.058;2024-02-21T07:05:24;7.10;51.20
326;DHT22;150;52.352;14.058;2024-02-21T07:07:50;7.20;51.40
326;DHT22;150;52.352;14.058;2024-02-21T07:10:17;7.20;51.20
326;DHT22;150;52.352;14.058;2024-02-21T07:12:43;7.20;50.80
326;DHT22;150;52.352;14.058;2024-02-21T07:15:11;7.20;50.80
326;DHT22;150;52.352;14.058;2024-02-21T07:17:38;7.30;51.30
326;DHT22;150;52.352;14.058;2024-02-21T07:20:06;7.40;50.40
326;DHT22;150;52.352;14.058;2024-02-21T07:22:32;7.40;50.30
326;DHT22;150;52.352;14.058;2024-02-21T07:24:59;7.50;50.20
326;DHT22;150;52.352;14.058;2024-02-21T07:27:25;7.40;49.50
326;DHT22;150;52.352;14.058;2024-02-21T07:29:56;7.40;49.30
326;DHT22;150;52.352;14.058;2024-02-21T07:32:24;7.40;49.10
326;DHT22;150;52.352;14.058;2024-02-21T07:34:50;7.40;49.50
326;DHT22;150;52.352;14.058;2024-02-21T07:37:17;7.40;49.80
326;DHT22;150;52.352;14.058;2024-02-21T07:39:43;7.40;49.90
326;DHT22;150;52.352;14.058;2024-02-21T07:42:10;7.30;49.90
326;DHT22;150;52.352;14.058;2024-02-21T07:44:36;7.30;50.20
326;DHT22;150;52.352;14.058;2024-02-21T07:47:03;7.40;50.10
326;DHT22;150;52.352;14.058;2024-02-21T07:49:33;7.50;49.70
326;DHT22;150;52.352;14.058;2024-02-21T07:52:06;7.60;49.30
326;DHT22;150;52.352;14.058;2024-02-21T07:54:33;7.60;48.80
326;DHT22;150;52.352;14.058;2024-02-21T07:56:59;7.60;48.70
326;DHT22;150;52.352;14.058;2024-02-21T07:59:26;7.70;48.30
326;DHT22;150;52.352;14.058;2024-02-21T08:01:56;7.70;48.10
326;DHT22;150;52.352;14.058;2024-02-21T08:04:23;7.70;48.10
326;DHT22;150;52.352;14.058;2024-02-21T08:06:52;7.70;48.10
326;DHT22;150;52.352;14.058;2024-02-21T08:09:21;7.70;47.70
326;DHT22;150;52.352;14.058;2024-02-21T08:11:48;7.70;48.00
326;DHT22;150;52.352;14.058;2024-02-21T08:14:15;7.60;47.50
326;DHT22;150;52.352;14.058;2024-02-21T08:16:50;7.70;48.30
326;DHT22;150;52.352;14.058;2024-02-21T08:19:21;7.70;47.60
326;DHT22;150;52.352;14.058;2024-02-21T08:21:56;7.70;48.10
326;DHT22;150;52.352;14.058;2024-02-21T08:24:23;7.70;47.50
326;DHT22;150;52.352;14.058;2024-02-21T08:26:52;7.70;47.70
326;DHT22;150;52.352;14.058;2024-02-21T08:29:18;7.70;47.40
326;DHT22;150;52.352;14.058;2024-02-21T08:31:45;7.80;47.80
326;DHT22;150;52.352;14.058;2024-02-21T08:34:12;7.80;47.50
326;DHT22;150;52.352;14.058;2024-02-21T08:36:39;7.90;47.00
326;DHT22;150;52.352;14.058;2024-02-21T08:39:10;7.90;46.70
326;DHT22;150;52.352;14.058;2024-02-21T08:41:40;7.90;46.20
326;DHT22;150;52.352;14.058;2024-02-21T08:44:07;8.00;45.50
326;DHT22;150;52.352;14.058;2024-02-21T08:46:33;8.10;44.80
326;DHT22;150;52.352;14.058;2024-02-21T08:49:00;8.10;44.30
326;DHT22;150;52.352;14.058;2024-02-21T08:51:27;8.10;44.40
326;DHT22;150;52.352;14.058;2024-02-21T08:53:53;8.10;44.30
326;DHT22;150;52.352;14.058;2024-02-21T08:56:22;8.30;44.60
326;DHT22;150;52.352;14.058;2024-02-21T08:58:48;8.30;43.50
326;DHT22;150;52.352;14.058;2024-02-21T09:01:15;8.40;43.30
326;DHT22;150;52.352;14.058;2024-02-21T09:03:42;8.50;42.80
326;DHT22;150;52.352;14.058;2024-02-21T09:06:10;8.40;42.50
326;DHT22;150;52.352;14.058;2024-02-21T09:08:38;8.40;42.30
326;DHT22;150;52.352;14.058;2024-02-21T09:11:10;8.40;41.90
326;DHT22;150;52.352;14.058;2024-02-21T09:13:38;8.50;42.70
326;DHT22;150;52.352;14.058;2024-02-21T09:16:05;8.50;42.00
326;DHT22;150;52.352;14.058;2024-02-21T09:18:32;8.50;41.40
326;DHT22;150;52.352;14.058;2024-02-21T09:20:58;8.60;41.80
326;DHT22;150;52.352;14.058;2024-02-21T09:23:25;8.60;41.40
326;DHT22;150;52.352;14.058;2024-02-21T09:25:52;8.70;41.60
326;DHT22;150;52.352;14.058;2024-02-21T09:28:20;8.80;41.50
326;DHT22;150;52.352;14.058;2024-02-21T09:30:49;9.00;39.90
326;DHT22;150;52.352;14.058;2024-02-21T09:33:16;9.00;39.70
326;DHT22;150;52.352;14.058;2024-02-21T09:35:47;9.00;38.70
326;DHT22;150;52.352;14.058;2024-02-21T09:38:25;9.00;39.00
326;DHT22;150;52.352;14.058;2024-02-21T09:41:53;8.90;39.20
326;DHT22;150;52.352;14.058;2024-02-21T09:48:38;9.10;38.80
326;DHT22;150;52.352;14.058;2024-02-21T09:51:52;9.00;38.50
326;DHT22;150;52.352;14.058;2024-02-21T09:54:36;9.00;38.70
326;DHT22;150;52.352;14.058;2024-02-21T09:57:28;9.00;38.80
326;DHT22;150;52.352;14.058;2024-02-21T09:59:59;9.10;38.80
326;DHT22;150;52.352;14.058;2024-02-21T10:06:05;9.50;39.40
326;DHT22;150;52.352;14.058;2024-02-21T10:13:06;9.70;36.30
326;DHT22;150;52.352;14.058;2024-02-21T10:16:03;9.80;36.40
326;DHT22;150;52.352;14.058;2024-02-21T10:18:45;9.80;35.80
326;DHT22;150;52.352;14.058;2024-02-21T10:21:31;9.90;35.90
326;DHT22;150;52.352;14.058;2024-02-21T10:24:03;10.00;36.20
326;DHT22;150;52.352;14.058;2024-02-21T10:26:40;10.10;35.70
326;DHT22;150;52.352;14.058;2024-02-21T10:29:18;10.30;34.70
326;DHT22;150;52.352;14.058;2024-02-21T10:32:16;10.50;34.60
326;DHT22;150;52.352;14.058;2024-02-21T10:35:11;10.40;33.00
326;DHT22;150;52.352;14.058;2024-02-21T10:38:31;10.40;33.70
326;DHT22;150;52.352;14.058;2024-02-21T10:41:09;10.20;34.20
326;DHT22;150;52.352;14.058;2024-02-21T10:43:50;10.30;34.50
326;DHT22;150;52.352;14.058;2024-02-21T10:46:26;10.30;33.80
326;DHT22;150;52.352;14.058;2024-02-21T10:49:16;10.40;34.60
326;DHT22;150;52.352;14.058;2024-02-21T10:52:18;10.30;33.30
326;DHT22;150;52.352;14.058;2024-02-21T10:58:44;10.20;33.70
326;DHT22;150;52.352;14.058;2024-02-21T11:01:51;10.20;33.50
326;DHT22;150;52.352;14.058;2024-02-21T11:05:20;10.20;33.90
326;DHT22;150;52.352;14.058;2024-02-21T11:07:41;10.10;34.30
326;DHT22;150;52.352;14.058;2024-02-21T11:13:12;10.40;34.10
326;DHT22;150;52.352;14.058;2024-02-21T11:16:11;10.60;33.20
326;DHT22;150;52.352;14.058;2024-02-21T11:19:18;10.60;33.10
326;DHT22;150;52.352;14.058;2024-02-21T11:24:09;10.70;33.60
326;DHT22;150;52.352;14.058;2024-02-21T11:32:26;11.00;31.30
326;DHT22;150;52.352;14.058;2024-02-21T11:35:19;11.00;32.70
326;DHT22;150;52.352;14.058;2024-02-21T11:37:52;11.00;31.10
326;DHT22;150;52.352;14.058;2024-02-21T11:40:21;11.10;31.40
326;DHT22;150;52.352;14.058;2024-02-21T11:43:00;11.00;30.80
326;DHT22;150;52.352;14.058;2024-02-21T11:45:31;10.80;31.70
326;DHT22;150;52.352;14.058;2024-02-21T11:48:06;10.80;31.10
326;DHT22;150;52.352;14.058;2024-02-21T11:50:58;10.90;31.70
326;DHT22;150;52.352;14.058;2024-02-21T11:53:43;10.90;31.60
326;DHT22;150;52.352;14.058;2024-02-21T11:56:34;10.90;31.60
326;DHT22;150;52.352;14.058;2024-02-21T12:03:21;10.90;31.00
326;DHT22;150;52.352;14.058;2024-02-21T12:06:15;11.00;31.40
326;DHT22;150;52.352;14.058;2024-02-21T12:09:30;11.10;31.80
326;DHT22;150;52.352;14.058;2024-02-21T12:13:38;11.40;30.60
326;DHT22;150;52.352;14.058;2024-02-21T12:16:28;11.30;29.50
326;DHT22;150;52.352;14.058;2024-02-21T12:19:58;11.40;29.90
326;DHT22;150;52.352;14.058;2024-02-21T12:23:00;11.40;29.60
326;DHT22;150;52.352;14.058;2024-02-21T12:25:50;11.40;29.70
326;DHT22;150;52.352;14.058;2024-02-21T12:28:40;11.50;29.30
326;DHT22;150;52.352;14.058;2024-02-21T12:31:24;11.40;29.30
326;DHT22;150;52.352;14.058;2024-02-21T12:34:10;11.30;29.70
326;DHT22;150;52.352;14.058;2024-02-21T12:36:52;11.40;30.00
326;DHT22;150;52.352;14.058;2024-02-21T12:39:28;11.40;29.10
326;DHT22;150;52.352;14.058;2024-02-21T12:42:18;11.50;29.50
326;DHT22;150;52.352;14.058;2024-02-21T12:45:26;11.50;29.10
326;DHT22;150;52.352;14.058;2024-02-21T12:48:55;11.60;29.00
326;DHT22;150;52.352;14.058;2024-02-21T12:51:21;11.70;28.40
326;DHT22;150;52.352;14.058;2024-02-21T12:57:40;11.60;28.70
326;DHT22;150;52.352;14.058;2024-02-21T13:00:14;11.70;28.40
326;DHT22;150;52.352;14.058;2024-02-21T13:02:54;11.80;28.80
326;DHT22;150;52.352;14.058;2024-02-21T13:05:26;11.70;27.80
326;DHT22;150;52.352;14.058;2024-02-21T13:07:53;11.80;28.20
326;DHT22;150;52.352;14.058;2024-02-21T13:10:26;11.80;28.10
326;DHT22;150;52.352;14.058;2024-02-21T13:12:57;11.70;28.00
326;DHT22;150;52.352;14.058;2024-02-21T13:15:43;11.60;28.40
326;DHT22;150;52.352;14.058;2024-02-21T13:18:52;11.60;28.70
326;DHT22;150;52.352;14.058;2024-02-21T13:24:49;11.40;28.50
326;DHT22;150;52.352;14.058;2024-02-21T13:36:06;11.10;29.30
326;DHT22;150;52.352;14.058;2024-02-21T13:38:33;11.20;29.40
326;DHT22;150;52.352;14.058;2024-02-21T13:40:59;11.20;29.90
326;DHT22;150;52.352;14.058;2024-02-21T13:43:26;11.20;30.00
326;DHT22;150;52.352;14.058;2024-02-21T13:45:56;11.20;29.90
326;DHT22;150;52.352;14.058;2024-02-21T13:48:22;11.20;29.20
326;DHT22;150;52.352;14.058;2024-02-21T13:50:49;11.00;29.50
326;DHT22;150;52.352;14.058;2024-02-21T13:53:17;11.00;29.40
326;DHT22;150;52.352;14.058;2024-02-21T13:55:46;11.00;29.80
326;DHT22;150;52.352;14.058;2024-02-21T13:58:12;11.10;29.70
326;DHT22;150;52.352;14.058;2024-02-21T14:00:39;11.10;29.40
326;DHT22;150;52.352;14.058;2024-02-21T14:03:06;11.10;29.00
326;DHT22;150;52.352;14.058;2024-02-21T14:05:32;11.10;29.20
326;DHT22;150;52.352;14.058;2024-02-21T14:07:59;11.00;28.90
326;DHT22;150;52.352;14.058;2024-02-21T14:10:27;11.00;29.30
326;DHT22;150;52.352;14.058;2024-02-21T14:12:53;10.90;28.80
326;DHT22;150;52.352;14.058;2024-02-21T14:15:20;10.80;28.90
326;DHT22;150;52.352;14.058;2024-02-21T14:17:47;10.70;29.20
326;DHT22;150;52.352;14.058;2024-02-21T14:20:13;10.70;29.60
326;DHT22;150;52.352;14.058;2024-02-21T14:22:40;10.80;29.20
326;DHT22;150;52.352;14.058;2024-02-21T14:25:08;10.70;29.00
326;DHT22;150;52.352;14.058;2024-02-21T14:27:36;10.60;29.10
326;DHT22;150;52.352;14.058;2024-02-21T14:30:03;10.60;29.60
326;DHT22;150;52.352;14.058;2024-02-21T14:32:29;10.60;28.90
326;DHT22;150;52.352;14.058;2024-02-21T14:34:56;10.60;28.80
326;DHT22;150;52.352;14.058;2024-02-21T14:37:22;10.50;28.90
326;DHT22;150;52.352;14.058;2024-02-21T14:39:49;10.50;29.10
326;DHT22;150;52.352;14.058;2024-02-21T14:42:16;10.60;29.60
326;DHT22;150;52.352;14.058;2024-02-21T14:44:44;10.60;29.40
326;DHT22;150;52.352;14.058;2024-02-21T14:47:10;10.60;29.10
326;DHT22;150;52.352;14.058;2024-02-21T14:49:37;10.60;29.30
326;DHT22;150;52.352;14.058;2024-02-21T14:52:04;10.50;29.50
326;DHT22;150;52.352;14.058;2024-02-21T14:54:30;10.60;29.60
326;DHT22;150;52.352;14.058;2024-02-21T14:56:57;10.60;29.40
326;DHT22;150;52.352;14.058;2024-02-21T14:59:24;10.60;29.40
326;DHT22;150;52.352;14.058;2024-02-21T15:01:51;10.50;30.00
326;DHT22;150;52.352;14.058;2024-02-21T15:04:18;10.50;30.00
326;DHT22;150;52.352;14.058;2024-02-21T15:06:45;10.50;30.20
326;DHT22;150;52.352;14.058;2024-02-21T15:09:11;10.60;30.20
326;DHT22;150;52.352;14.058;2024-02-21T15:11:38;10.70;30.30
326;DHT22;150;52.352;14.058;2024-02-21T15:14:04;10.70;30.10
326;DHT22;150;52.352;14.058;2024-02-21T15:16:31;10.70;29.90
326;DHT22;150;52.352;14.058;2024-02-21T15:18:59;10.70;29.70
326;DHT22;150;52.352;14.058;2024-02-21T15:21:25;10.70;29.60
326;DHT22;150;52.352;14.058;2024-02-21T15:23:52;10.70;29.60
326;DHT22;150;52.352;14.058;2024-02-21T15:26:19;10.60;29.60
326;DHT22;150;52.352;14.058;2024-02-21T15:28:46;10.70;29.80
326;DHT22;150;52.352;14.058;2024-02-21T15:31:20;10.60;29.80
326;DHT22;150;52.352;14.058;2024-02-21T15:33:48;10.50;29.90
326;DHT22;150;52.352;14.058;2024-02-21T15:36:16;10.60;30.40
326;DHT22;150;52.352;14.058;2024-02-21T15:38:43;10.60;30.10
326;DHT22;150;52.352;14.058;2024-02-21T15:41:11;10.60;30.20
326;DHT22;150;52.352;14.058;2024-02-21T15:43:37;10.60;30.50
326;DHT22;150;52.352;14.058;2024-02-21T15:46:04;10.50;30.40
326;DHT22;150;52.352;14.058;2024-02-21T15:48:31;10.50;30.30
326;DHT22;150;52.352;14.058;2024-02-21T15:50:59;10.50;30.00
326;DHT22;150;52.352;14.058;2024-02-21T15:53:27;10.50;30.00
326;DHT22;150;52.352;14.058;2024-02-21T15:55:54;10.40;30.00
326;DHT22;150;52.352;14.058;2024-02-21T15:58:21;10.40;30.00
326;DHT22;150;52.352;14.058;2024-02-21T16:00:48;10.30;30.30
326;DHT22;150;52.352;14.058;2024-02-21T16:03:14;10.30;30.40
326;DHT22;150;52.352;14.058;2024-02-21T16:05:41;10.30;29.90
326;DHT22;150;52.352;14.058;2024-02-21T16:08:08;10.20;29.30
326;DHT22;150;52.352;14.058;2024-02-21T16:10:36;10.10;29.10
326;DHT22;150;52.352;14.058;2024-02-21T16:13:02;10.00;29.70
326;DHT22;150;52.352;14.058;2024-02-21T16:15:29;9.90;28.90
326;DHT22;150;52.352;14.058;2024-02-21T16:17:56;9.80;28.80
326;DHT22;150;52.352;14.058;2024-02-21T16:20:23;9.70;28.70
326;DHT22;150;52.352;14.058;2024-02-21T16:22:50;9.60;28.90
326;DHT22;150;52.352;14.058;2024-02-21T16:25:16;9.60;28.90
326;DHT22;150;52.352;14.058;2024-02-21T16:27:45;9.60;28.50
326;DHT22;150;52.352;14.058;2024-02-21T16:30:12;9.70;28.90
326;DHT22;150;52.352;14.058;2024-02-21T16:32:37;9.70;28.80
326;DHT22;150;52.352;14.058;2024-02-21T16:35:08;9.70;28.90
326;DHT22;150;52.352;14.058;2024-02-21T16:37:35;9.80;28.80
326;DHT22;150;52.352;14.058;2024-02-21T16:40:02;9.70;28.90
326;DHT22;150;52.352;14.058;2024-02-21T16:42:30;9.70;28.90
326;DHT22;150;52.352;14.058;2024-02-21T16:44:58;9.70;28.90
326;DHT22;150;52.352;14.058;2024-02-21T16:47:26;9.80;29.10
326;DHT22;150;52.352;14.058;2024-02-21T16:49:52;9.80;29.20
326;DHT22;150;52.352;14.058;2024-02-21T16:52:19;9.70;28.90
326;DHT22;150;52.352;14.058;2024-02-21T16:54:45;9.80;29.10
326;DHT22;150;52.352;14.058;2024-02-21T16:57:12;9.80;28.70
326;DHT22;150;52.352;14.058;2024-02-21T16:59:39;9.70;28.90
326;DHT22;150;52.352;14.058;2024-02-21T17:02:07;9.70;29.00
326;DHT22;150;52.352;14.058;2024-02-21T17:04:33;9.60;28.90
326;DHT22;150;52.352;14.058;2024-02-21T17:07:00;9.60;29.10
326;DHT22;150;52.352;14.058;2024-02-21T17:09:26;9.60;29.00
326;DHT22;150;52.352;14.058;2024-02-21T17:11:54;9.50;28.90
326;DHT22;150;52.352;14.058;2024-02-21T17:14:20;9.50;29.20
326;DHT22;150;52.352;14.058;2024-02-21T17:16:47;9.40;29.20
326;DHT22;150;52.352;14.058;2024-02-21T17:19:15;9.40;29.50
326;DHT22;150;52.352;14.058;2024-02-21T17:21:42;9.30;29.60
326;DHT22;150;52.352;14.058;2024-02-21T17:24:08;9.40;29.80
326;DHT22;150;52.352;14.058;2024-02-21T17:26:35;9.30;29.50
326;DHT22;150;52.352;14.058;2024-02-21T17:29:02;9.30;29.70
326;DHT22;150;52.352;14.058;2024-02-21T17:31:28;9.20;29.70
326;DHT22;150;52.352;14.058;2024-02-21T17:33:55;9.20;29.70
326;DHT22;150;52.352;14.058;2024-02-21T17:36:23;9.20;29.90
326;DHT22;150;52.352;14.058;2024-02-21T17:38:50;9.20;30.50